sensor_id;sensor_type;location;lat;lon;timestamp;P1;durP1;ratioP1;P2;durP2;ratioP2
47483;SDS011;54076;50.322;18.650;2023-10-08T00:03:25;2.50;;;0.80;;
47483;SDS011;54076;50.322;18.650;2023-10-08T00:08:29;2.40;;;0.80;;
47483;SDS011;54076;50.322;18.650;2023-10-08T00:13:30;2.50;;;0.70;;
47483;SDS011;54076;50.322;18.650;2023-10-08T00:18:31;3.10;;;0.80;;
47483;SDS011;54076;50.322;18.650;2023-10-08T00:23:33;3.00;;;0.90;;
47483;SDS011;54076;50.322;18.650;2023-10-08T00:28:35;2.60;;;0.80;;
47483;SDS011;54076;50.322;18.650;2023-10-08T00:33:37;2.10;;;0.50;;
47483;SDS011;54076;50.322;18.650;2023-10-08T00:38:38;1.80;;;0.60;;
47483;SDS011;54076;50.322;18.650;2023-10-08T00:43:44;1.90;;;0.50;;
47483;SDS011;54076;50.322;18.650;2023-10-08T00:48:46;2.30;;;0.80;;
47483;SDS011;54076;50.322;18.650;2023-10-08T00:54:02;1.80;;;0.60;;
47483;SDS011;54076;50.322;18.650;2023-10-08T00:59:11;2.50;;;0.80;;
47483;SDS011;54076;50.322;18.650;2023-10-08T01:04:20;2.00;;;0.60;;
47483;SDS011;54076;50.322;18.650;2023-10-08T01:09:34;1.70;;;0.50;;
47483;SDS011;54076;50.322;18.650;2023-10-08T01:14:38;2.90;;;0.70;;
47483;SDS011;54076;50.322;18.650;2023-10-08T01:19:43;2.00;;;0.70;;
47483;SDS011;54076;50.322;18.650;2023-10-08T01:24:46;2.40;;;0.60;;
47483;SDS011;54076;50.322;18.650;2023-10-08T01:29:52;2.10;;;0.70;;
47483;SDS011;54076;50.322;18.650;2023-10-08T01:34:53;2.70;;;0.60;;
47483;SDS011;54076;50.322;18.650;2023-10-08T01:39:54;1.80;;;0.60;;
47483;SDS011;54076;50.322;18.650;2023-10-08T01:44:54;1.90;;;0.60;;
47483;SDS011;54076;50.322;18.650;2023-10-08T01:49:56;1.60;;;0.60;;
47483;SDS011;54076;50.322;18.650;2023-10-08T01:55:06;1.70;;;0.60;;
47483;SDS011;54076;50.322;18.650;2023-10-08T02:00:11;1.90;;;0.70;;
47483;SDS011;54076;50.322;18.650;2023-10-08T02:05:14;2.40;;;0.60;;
47483;SDS011;54076;50.322;18.650;2023-10-08T02:10:15;1.50;;;0.50;;
47483;SDS011;54076;50.322;18.650;2023-10-08T02:15:16;3.10;;;0.60;;
47483;SDS011;54076;50.322;18.650;2023-10-08T02:20:17;2.00;;;0.70;;
47483;SDS011;54076;50.322;18.650;2023-10-08T02:25:19;1.90;;;0.50;;
47483;SDS011;54076;50.322;18.650;2023-10-08T02:30:20;1.90;;;0.70;;
47483;SDS011;54076;50.322;18.650;2023-10-08T02:35:21;2.00;;;0.80;;
47483;SDS011;54076;50.322;18.650;2023-10-08T02:40:23;2.00;;;0.70;;
47483;SDS011;54076;50.322;18.650;2023-10-08T02:45:28;2.00;;;0.60;;
47483;SDS011;54076;50.322;18.650;2023-10-08T02:50:29;1.90;;;0.70;;
47483;SDS011;54076;50.322;18.650;2023-10-08T02:55:30;1.80;;;0.60;;
47483;SDS011;54076;50.322;18.650;2023-10-08T03:00:37;2.50;;;0.80;;
47483;SDS011;54076;50.322;18.650;2023-10-08T03:05:47;2.10;;;0.80;;
47483;SDS011;54076;50.322;18.650;2023-10-08T03:10:52;2.30;;;0.70;;
47483;SDS011;54076;50.322;18.650;2023-10-08T03:15:56;2.20;;;0.50;;
47483;SDS011;54076;50.322;18.650;2023-10-08T03:21:06;2.50;;;0.70;;
47483;SDS011;54076;50.322;18.650;2023-10-08T03:26:34;3.50;;;0.70;;
47483;SDS011;54076;50.322;18.650;2023-10-08T03:31:36;2.50;;;0.80;;
47483;SDS011;54076;50.322;18.650;2023-10-08T03:36:49;2.50;;;0.80;;
47483;SDS011;54076;50.322;18.650;2023-10-08T03:42:03;2.20;;;0.70;;
47483;SDS011;54076;50.322;18.650;2023-10-08T03:47:10;2.40;;;0.80;;
47483;SDS011;54076;50.322;18.650;2023-10-08T03:52:12;2.40;;;0.70;;
47483;SDS011;54076;50.322;18.650;2023-10-08T03:57:16;2.70;;;0.80;;
47483;SDS011;54076;50.322;18.650;2023-10-08T04:02:25;3.00;;;1.00;;
47483;SDS011;54076;50.322;18.650;2023-10-08T04:07:42;4.10;;;0.80;;
47483;SDS011;54076;50.322;18.650;2023-10-08T04:13:03;3.80;;;1.10;;
47483;SDS011;54076;50.322;18.650;2023-10-08T04:18:10;3.20;;;1.10;;
47483;SDS011;54076;50.322;18.650;2023-10-08T04:23:13;2.50;;;0.90;;
47483;SDS011;54076;50.322;18.650;2023-10-08T04:28:18;2.10;;;0.60;;
47483;SDS011;54076;50.322;18.650;2023-10-08T04:33:21;2.90;;;1.00;;
47483;SDS011;54076;50.322;18.650;2023-10-08T04:38:23;3.70;;;1.10;;
47483;SDS011;54076;50.322;18.650;2023-10-08T04:43:29;4.60;;;1.30;;
47483;SDS011;54076;50.322;18.650;2023-10-08T04:48:31;4.50;;;1.00;;
47483;SDS011;54076;50.322;18.650;2023-10-08T04:53:37;3.30;;;0.80;;
47483;SDS011;54076;50.322;18.650;2023-10-08T04:58:41;3.50;;;1.00;;
47483;SDS011;54076;50.322;18.650;2023-10-08T05:03:51;3.40;;;1.20;;
47483;SDS011;54076;50.322;18.650;2023-10-08T05:08:57;3.10;;;1.00;;
47483;SDS011;54076;50.322;18.650;2023-10-08T05:14:10;3.50;;;1.10;;
47483;SDS011;54076;50.322;18.650;2023-10-08T05:19:28;3.00;;;0.90;;
47483;SDS011;54076;50.322;18.650;2023-10-08T05:24:49;2.90;;;1.10;;
47483;SDS011;54076;50.322;18.650;2023-10-08T05:30:08;3.80;;;0.90;;
47483;SDS011;54076;50.322;18.650;2023-10-08T05:35:16;4.70;;;1.20;;
47483;SDS011;54076;50.322;18.650;2023-10-08T05:40:36;3.90;;;1.20;;
47483;SDS011;54076;50.322;18.650;2023-10-08T05:45:55;3.70;;;1.30;;
47483;SDS011;54076;50.322;18.650;2023-10-08T05:51:16;3.10;;;1.10;;
47483;SDS011;54076;50.322;18.650;2023-10-08T05:56:34;3.10;;;0.90;;
47483;SDS011;54076;50.322;18.650;2023-10-08T06:01:55;4.20;;;1.30;;
47483;SDS011;54076;50.322;18.650;2023-10-08T06:07:16;4.50;;;1.10;;
47483;SDS011;54076;50.322;18.650;2023-10-08T06:12:33;3.30;;;1.00;;
47483;SDS011;54076;50.322;18.650;2023-10-08T06:17:45;4.40;;;1.10;;
47483;SDS011;54076;50.322;18.650;2023-10-08T06:23:06;4.10;;;1.30;;
47483;SDS011;54076;50.322;18.650;2023-10-08T06:28:07;4.60;;;1.80;;
47483;SDS011;54076;50.322;18.650;2023-10-08T06:33:10;5.00;;;1.40;;
47483;SDS011;54076;50.322;18.650;2023-10-08T06:38:11;3.90;;;1.60;;
47483;SDS011;54076;50.322;18.650;2023-10-08T06:43:15;3.40;;;1.30;;
47483;SDS011;54076;50.322;18.650;2023-10-08T06:48:18;5.60;;;1.70;;
47483;SDS011;54076;50.322;18.650;2023-10-08T06:53:24;4.60;;;1.60;;
47483;SDS011;54076;50.322;18.650;2023-10-08T06:58:25;4.30;;;1.40;;
47483;SDS011;54076;50.322;18.650;2023-10-08T07:03:26;3.60;;;1.10;;
47483;SDS011;54076;50.322;18.650;2023-10-08T07:08:30;4.10;;;1.60;;
47483;SDS011;54076;50.322;18.650;2023-10-08T07:13:36;6.70;;;1.80;;
47483;SDS011;54076;50.322;18.650;2023-10-08T07:18:38;4.10;;;1.50;;
47483;SDS011;54076;50.322;18.650;2023-10-08T07:23:39;4.40;;;1.40;;
47483;SDS011;54076;50.322;18.650;2023-10-08T07:29:00;5.00;;;2.00;;
47483;SDS011;54076;50.322;18.650;2023-10-08T07:34:01;4.60;;;1.70;;
47483;SDS011;54076;50.322;18.650;2023-10-08T07:39:16;5.80;;;1.70;;
47483;SDS011;54076;50.322;18.650;2023-10-08T07:44:34;4.30;;;2.00;;
47483;SDS011;54076;50.322;18.650;2023-10-08T07:49:39;5.90;;;2.00;;
47483;SDS011;54076;50.322;18.650;2023-10-08T07:54:40;4.30;;;1.30;;
47483;SDS011;54076;50.322;18.650;2023-10-08T07:59:42;5.70;;;1.90;;
47483;SDS011;54076;50.322;18.650;2023-10-08T08:04:50;5.90;;;1.90;;
47483;SDS011;54076;50.322;18.650;2023-10-08T08:09:53;7.80;;;2.00;;
47483;SDS011;54076;50.322;18.650;2023-10-08T08:15:00;7.40;;;2.30;;
47483;SDS011;54076;50.322;18.650;2023-10-08T08:20:04;16.00;;;6.50;;
47483;SDS011;54076;50.322;18.650;2023-10-08T08:25:18;5.30;;;2.30;;
47483;SDS011;54076;50.322;18.650;2023-10-08T08:30:34;7.10;;;2.10;;
47483;SDS011;54076;50.322;18.650;2023-10-08T08:35:37;6.00;;;2.30;;
47483;SDS011;54076;50.322;18.650;2023-10-08T08:40:38;5.10;;;2.00;;
47483;SDS011;54076;50.322;18.650;2023-10-08T08:45:40;5.40;;;2.20;;
47483;SDS011;54076;50.322;18.650;2023-10-08T08:50:41;4.40;;;1.70;;
47483;SDS011;54076;50.322;18.650;2023-10-08T08:55:43;4.50;;;1.60;;
47483;SDS011;54076;50.322;18.650;2023-10-08T09:00:46;4.00;;;1.40;;
47483;SDS011;54076;50.322;18.650;2023-10-08T09:05:52;5.20;;;1.30;;
47483;SDS011;54076;50.322;18.650;2023-10-08T09:10:59;4.40;;;1.60;;
47483;SDS011;54076;50.322;18.650;2023-10-08T09:16:11;4.40;;;1.50;;
47483;SDS011;54076;50.322;18.650;2023-10-08T09:21:18;6.30;;;1.40;;
47483;SDS011;54076;50.322;18.650;2023-10-08T09:26:23;4.30;;;1.80;;
47483;SDS011;54076;50.322;18.650;2023-10-08T09:31:25;4.10;;;1.40;;
47483;SDS011;54076;50.322;18.650;2023-10-08T09:36:31;3.50;;;1.40;;
47483;SDS011;54076;50.322;18.650;2023-10-08T09:41:32;4.90;;;1.60;;
47483;SDS011;54076;50.322;18.650;2023-10-08T09:46:33;3.90;;;1.50;;
47483;SDS011;54076;50.322;18.650;2023-10-08T09:51:40;4.20;;;1.30;;
47483;SDS011;54076;50.322;18.650;2023-10-08T09:56:41;5.00;;;1.30;;
47483;SDS011;54076;50.322;18.650;2023-10-08T10:01:43;3.30;;;1.30;;
47483;SDS011;54076;50.322;18.650;2023-10-08T10:06:45;3.20;;;1.10;;
47483;SDS011;54076;50.322;18.650;2023-10-08T10:11:49;4.30;;;1.50;;
47483;SDS011;54076;50.322;18.650;2023-10-08T10:17:19;3.10;;;1.20;;
47483;SDS011;54076;50.322;18.650;2023-10-08T10:22:33;3.00;;;1.30;;
47483;SDS011;54076;50.322;18.650;2023-10-08T10:27:35;7.20;;;1.20;;
47483;SDS011;54076;50.322;18.650;2023-10-08T10:32:36;4.10;;;1.30;;
47483;SDS011;54076;50.322;18.650;2023-10-08T10:37:37;3.80;;;1.30;;
47483;SDS011;54076;50.322;18.650;2023-10-08T10:42:56;4.70;;;1.50;;
47483;SDS011;54076;50.322;18.650;2023-10-08T10:47:57;3.70;;;1.20;;
47483;SDS011;54076;50.322;18.650;2023-10-08T10:53:11;3.10;;;1.20;;
47483;SDS011;54076;50.322;18.650;2023-10-08T10:58:13;3.30;;;1.10;;
47483;SDS011;54076;50.322;18.650;2023-10-08T11:03:16;3.80;;;1.20;;
47483;SDS011;54076;50.322;18.650;2023-10-08T11:08:18;2.80;;;1.10;;
47483;SDS011;54076;50.322;18.650;2023-10-08T11:13:20;3.10;;;1.00;;
47483;SDS011;54076;50.322;18.650;2023-10-08T11:18:23;3.30;;;1.30;;
47483;SDS011;54076;50.322;18.650;2023-10-08T11:23:36;3.40;;;1.10;;
47483;SDS011;54076;50.322;18.650;2023-10-08T11:28:42;4.90;;;1.50;;
47483;SDS011;54076;50.322;18.650;2023-10-08T11:33:44;3.20;;;1.20;;
47483;SDS011;54076;50.322;18.650;2023-10-08T11:38:55;3.10;;;0.90;;
47483;SDS011;54076;50.322;18.650;2023-10-08T11:44:01;3.20;;;1.10;;
47483;SDS011;54076;50.322;18.650;2023-10-08T11:49:04;3.20;;;0.90;;
47483;SDS011;54076;50.322;18.650;2023-10-08T11:54:06;4.40;;;1.00;;
47483;SDS011;54076;50.322;18.650;2023-10-08T11:59:07;3.50;;;1.20;;
47483;SDS011;54076;50.322;18.650;2023-10-08T12:04:12;4.70;;;2.30;;
47483;SDS011;54076;50.322;18.650;2023-10-08T12:09:16;3.40;;;0.90;;
47483;SDS011;54076;50.322;18.650;2023-10-08T12:14:17;3.60;;;0.90;;
47483;SDS011;54076;50.322;18.650;2023-10-08T12:19:19;3.60;;;1.00;;
47483;SDS011;54076;50.322;18.650;2023-10-08T12:24:22;3.80;;;0.90;;
47483;SDS011;54076;50.322;18.650;2023-10-08T12:29:23;3.90;;;1.20;;
47483;SDS011;54076;50.322;18.650;2023-10-08T12:34:26;3.70;;;1.60;;
47483;SDS011;54076;50.322;18.650;2023-10-08T12:39:30;2.90;;;0.90;;
47483;SDS011;54076;50.322;18.650;2023-10-08T12:44:32;2.80;;;1.00;;
47483;SDS011;54076;50.322;18.650;2023-10-08T12:49:34;3.90;;;0.90;;
47483;SDS011;54076;50.322;18.650;2023-10-08T12:54:35;2.50;;;0.80;;
47483;SDS011;54076;50.322;18.650;2023-10-08T12:59:45;4.40;;;1.10;;
47483;SDS011;54076;50.322;18.650;2023-10-08T13:04:52;6.50;;;1.10;;
47483;SDS011;54076;50.322;18.650;2023-10-08T13:09:55;3.20;;;1.00;;
47483;SDS011;54076;50.322;18.650;2023-10-08T13:14:58;3.00;;;0.80;;
47483;SDS011;54076;50.322;18.650;2023-10-08T13:20:01;4.20;;;0.70;;
47483;SDS011;54076;50.322;18.650;2023-10-08T13:25:03;4.10;;;1.30;;
47483;SDS011;54076;50.322;18.650;2023-10-08T13:30:06;3.40;;;1.00;;
47483;SDS011;54076;50.322;18.650;2023-10-08T13:35:09;7.60;;;3.90;;
47483;SDS011;54076;50.322;18.650;2023-10-08T13:40:11;3.40;;;1.10;;
47483;SDS011;54076;50.322;18.650;2023-10-08T13:45:16;3.60;;;1.40;;
47483;SDS011;54076;50.322;18.650;2023-10-08T13:50:26;4.00;;;1.00;;
47483;SDS011;54076;50.322;18.650;2023-10-08T13:55:31;3.10;;;1.00;;
47483;SDS011;54076;50.322;18.650;2023-10-08T14:00:31;3.90;;;1.20;;
47483;SDS011;54076;50.322;18.650;2023-10-08T14:05:36;3.40;;;0.90;;
47483;SDS011;54076;50.322;18.650;2023-10-08T14:10:38;4.70;;;1.20;;
47483;SDS011;54076;50.322;18.650;2023-10-08T14:15:39;3.90;;;1.20;;
47483;SDS011;54076;50.322;18.650;2023-10-08T14:20:46;3.90;;;1.20;;
47483;SDS011;54076;50.322;18.650;2023-10-08T14:25:48;3.40;;;1.20;;
47483;SDS011;54076;50.322;18.650;2023-10-08T14:30:53;3.70;;;1.40;;
47483;SDS011;54076;50.322;18.650;2023-10-08T14:35:56;3.60;;;1.30;;
47483;SDS011;54076;50.322;18.650;2023-10-08T14:41:15;3.10;;;1.20;;
47483;SDS011;54076;50.322;18.650;2023-10-08T14:46:35;3.40;;;1.10;;
47483;SDS011;54076;50.322;18.650;2023-10-08T14:51:37;3.20;;;1.30;;
47483;SDS011;54076;50.322;18.650;2023-10-08T14:56:41;3.50;;;1.30;;
47483;SDS011;54076;50.322;18.650;2023-10-08T15:01:41;3.60;;;1.20;;
47483;SDS011;54076;50.322;18.650;2023-10-08T15:06:42;3.40;;;1.10;;
47483;SDS011;54076;50.322;18.650;2023-10-08T15:11:44;3.20;;;1.20;;
47483;SDS011;54076;50.322;18.650;2023-10-08T15:16:46;18.00;;;7.80;;
47483;SDS011;54076;50.322;18.650;2023-10-08T15:21:52;4.00;;;1.60;;
47483;SDS011;54076;50.322;18.650;2023-10-08T15:26:54;3.50;;;1.40;;
47483;SDS011;54076;50.322;18.650;2023-10-08T15:31:55;4.00;;;1.40;;
47483;SDS011;54076;50.322;18.650;2023-10-08T15:36:57;4.50;;;1.50;;
47483;SDS011;54076;50.322;18.650;2023-10-08T15:41:59;3.80;;;1.10;;
47483;SDS011;54076;50.322;18.650;2023-10-08T15:46:59;3.50;;;1.40;;
47483;SDS011;54076;50.322;18.650;2023-10-08T15:52:00;3.80;;;1.30;;
47483;SDS011;54076;50.322;18.650;2023-10-08T15:57:01;3.50;;;1.20;;
47483;SDS011;54076;50.322;18.650;2023-10-08T16:02:05;3.70;;;1.40;;
47483;SDS011;54076;50.322;18.650;2023-10-08T16:07:06;3.60;;;1.30;;
47483;SDS011;54076;50.322;18.650;2023-10-08T16:12:07;4.20;;;1.40;;
47483;SDS011;54076;50.322;18.650;2023-10-08T16:17:10;3.70;;;1.40;;
47483;SDS011;54076;50.322;18.650;2023-10-08T16:22:13;3.70;;;1.30;;
47483;SDS011;54076;50.322;18.650;2023-10-08T16:27:15;11.00;;;5.50;;
47483;SDS011;54076;50.322;18.650;2023-10-08T16:32:16;4.80;;;1.40;;
47483;SDS011;54076;50.322;18.650;2023-10-08T16:37:17;5.10;;;1.60;;
47483;SDS011;54076;50.322;18.650;2023-10-08T16:42:22;8.50;;;1.70;;
47483;SDS011;54076;50.322;18.650;2023-10-08T16:47:23;4.40;;;1.40;;
47483;SDS011;54076;50.322;18.650;2023-10-08T16:52:24;3.10;;;1.30;;
47483;SDS011;54076;50.322;18.650;2023-10-08T16:57:25;4.30;;;1.40;;
47483;SDS011;54076;50.322;18.650;2023-10-08T17:02:26;4.20;;;1.70;;
47483;SDS011;54076;50.322;18.650;2023-10-08T17:07:27;5.10;;;2.00;;
47483;SDS011;54076;50.322;18.650;2023-10-08T17:12:28;5.00;;;2.20;;
47483;SDS011;54076;50.322;18.650;2023-10-08T17:17:28;7.10;;;2.30;;
47483;SDS011;54076;50.322;18.650;2023-10-08T17:22:31;8.10;;;3.30;;
47483;SDS011;54076;50.322;18.650;2023-10-08T17:27:33;9.70;;;3.80;;
47483;SDS011;54076;50.322;18.650;2023-10-08T17:32:34;10.10;;;3.60;;
47483;SDS011;54076;50.322;18.650;2023-10-08T17:37:36;14.20;;;4.60;;
47483;SDS011;54076;50.322;18.650;2023-10-08T17:42:39;19.80;;;5.30;;
47483;SDS011;54076;50.322;18.650;2023-10-08T17:47:40;17.60;;;4.70;;
47483;SDS011;54076;50.322;18.650;2023-10-08T17:52:41;12.20;;;4.30;;
47483;SDS011;54076;50.322;18.650;2023-10-08T17:57:45;15.40;;;4.80;;
47483;SDS011;54076;50.322;18.650;2023-10-08T18:02:47;12.50;;;4.60;;
47483;SDS011;54076;50.322;18.650;2023-10-08T18:07:50;13.60;;;4.00;;
47483;SDS011;54076;50.322;18.650;2023-10-08T18:12:51;13.20;;;4.20;;
47483;SDS011;54076;50.322;18.650;2023-10-08T18:17:52;9.10;;;3.50;;
47483;SDS011;54076;50.322;18.650;2023-10-08T18:22:55;8.30;;;3.20;;
47483;SDS011;54076;50.322;18.650;2023-10-08T18:27:57;10.70;;;3.70;;
47483;SDS011;54076;50.322;18.650;2023-10-08T18:32:58;10.50;;;3.40;;
47483;SDS011;54076;50.322;18.650;2023-10-08T18:38:00;9.20;;;3.00;;
47483;SDS011;54076;50.322;18.650;2023-10-08T18:43:01;9.70;;;3.10;;
47483;SDS011;54076;50.322;18.650;2023-10-08T18:48:02;8.20;;;2.90;;
47483;SDS011;54076;50.322;18.650;2023-10-08T18:53:03;6.80;;;2.80;;
47483;SDS011;54076;50.322;18.650;2023-10-08T18:58:04;7.00;;;2.90;;
47483;SDS011;54076;50.322;18.650;2023-10-08T19:03:05;11.70;;;4.50;;
47483;SDS011;54076;50.322;18.650;2023-10-08T19:08:08;8.80;;;3.40;;
47483;SDS011;54076;50.322;18.650;2023-10-08T19:13:12;7.40;;;2.90;;
47483;SDS011;54076;50.322;18.650;2023-10-08T19:18:12;8.30;;;2.90;;
47483;SDS011;54076;50.322;18.650;2023-10-08T19:23:15;8.60;;;3.10;;
47483;SDS011;54076;50.322;18.650;2023-10-08T19:28:17;9.00;;;3.10;;
47483;SDS011;54076;50.322;18.650;2023-10-08T19:33:21;5.80;;;2.60;;
47483;SDS011;54076;50.322;18.650;2023-10-08T19:38:22;8.70;;;2.80;;
47483;SDS011;54076;50.322;18.650;2023-10-08T19:43:24;6.20;;;2.80;;
47483;SDS011;54076;50.322;18.650;2023-10-08T19:48:25;7.00;;;2.80;;
47483;SDS011;54076;50.322;18.650;2023-10-08T19:53:27;8.10;;;2.80;;
47483;SDS011;54076;50.322;18.650;2023-10-08T19:58:31;16.40;;;6.70;;
47483;SDS011;54076;50.322;18.650;2023-10-08T20:03:32;7.30;;;3.00;;
47483;SDS011;54076;50.322;18.650;2023-10-08T20:08:33;9.60;;;3.10;;
47483;SDS011;54076;50.322;18.650;2023-10-08T20:13:36;6.40;;;2.90;;
47483;SDS011;54076;50.322;18.650;2023-10-08T20:18:36;9.60;;;3.30;;
47483;SDS011;54076;50.322;18.650;2023-10-08T20:23:37;8.00;;;3.40;;
47483;SDS011;54076;50.322;18.650;2023-10-08T20:28:40;8.10;;;3.00;;
47483;SDS011;54076;50.322;18.650;2023-10-08T20:33:43;7.00;;;2.60;;
47483;SDS011;54076;50.322;18.650;2023-10-08T20:38:44;7.00;;;2.80;;
47483;SDS011;54076;50.322;18.650;2023-10-08T20:43:45;10.20;;;3.20;;
47483;SDS011;54076;50.322;18.650;2023-10-08T20:48:47;9.20;;;2.80;;
47483;SDS011;54076;50.322;18.650;2023-10-08T20:53:48;6.60;;;2.70;;
47483;SDS011;54076;50.322;18.650;2023-10-08T20:58:50;6.80;;;2.80;;
47483;SDS011;54076;50.322;18.650;2023-10-08T21:03:51;6.80;;;2.60;;
47483;SDS011;54076;50.322;18.650;2023-10-08T21:08:52;7.00;;;2.60;;
47483;SDS011;54076;50.322;18.650;2023-10-08T21:13:56;7.90;;;2.30;;
47483;SDS011;54076;50.322;18.650;2023-10-08T21:18:56;7.30;;;2.70;;
47483;SDS011;54076;50.322;18.650;2023-10-08T21:23:58;6.80;;;2.60;;
47483;SDS011;54076;50.322;18.650;2023-10-08T21:28:59;9.00;;;4.10;;
47483;SDS011;54076;50.322;18.650;2023-10-08T21:34:00;12.10;;;3.90;;
47483;SDS011;54076;50.322;18.650;2023-10-08T21:39:01;11.20;;;4.00;;
47483;SDS011;54076;50.322;18.650;2023-10-08T21:44:05;11.20;;;3.20;;
47483;SDS011;54076;50.322;18.650;2023-10-08T21:49:06;9.20;;;4.00;;
47483;SDS011;54076;50.322;18.650;2023-10-08T21:54:07;9.10;;;3.50;;
47483;SDS011;54076;50.322;18.650;2023-10-08T21:59:08;9.90;;;4.00;;
47483;SDS011;54076;50.322;18.650;2023-10-08T22:04:09;10.70;;;4.20;;
47483;SDS011;54076;50.322;18.650;2023-10-08T22:09:12;9.30;;;3.70;;
47483;SDS011;54076;50.322;18.650;2023-10-08T22:14:13;8.20;;;3.50;;
47483;SDS011;54076;50.322;18.650;2023-10-08T22:19:19;9.70;;;3.70;;
47483;SDS011;54076;50.322;18.650;2023-10-08T22:24:22;9.20;;;3.70;;
47483;SDS011;54076;50.322;18.650;2023-10-08T22:29:23;9.00;;;3.70;;
47483;SDS011;54076;50.322;18.650;2023-10-08T22:34:25;7.40;;;3.20;;
47483;SDS011;54076;50.322;18.650;2023-10-08T22:39:29;12.00;;;3.60;;
47483;SDS011;54076;50.322;18.650;2023-10-08T22:44:30;8.30;;;3.30;;
47483;SDS011;54076;50.322;18.650;2023-10-08T22:49:32;10.20;;;3.90;;
47483;SDS011;54076;50.322;18.650;2023-10-08T22:54:34;8.90;;;3.50;;
47483;SDS011;54076;50.322;18.650;2023-10-08T22:59:37;10.70;;;3.80;;
47483;SDS011;54076;50.322;18.650;2023-10-08T23:04:40;9.50;;;3.50;;
47483;SDS011;54076;50.322;18.650;2023-10-08T23:09:41;10.80;;;3.60;;
47483;SDS011;54076;50.322;18.650;2023-10-08T23:14:42;8.30;;;3.40;;
47483;SDS011;54076;50.322;18.650;2023-10-08T23:19:43;10.40;;;3.90;;
47483;SDS011;54076;50.322;18.650;2023-10-08T23:24:45;7.90;;;3.60;;
47483;SDS011;54076;50.322;18.650;2023-10-08T23:29:48;7.60;;;3.60;;
47483;SDS011;54076;50.322;18.650;2023-10-08T23:34:49;8.60;;;3.80;;
47483;SDS011;54076;50.322;18.650;2023-10-08T23:39:50;9.20;;;4.30;;
47483;SDS011;54076;50.322;18.650;2023-10-08T23:44:55;9.10;;;3.80;;
47483;SDS011;54076;50.322;18.650;2023-10-08T23:49:58;8.50;;;3.60;;
47483;SDS011;54076;50.322;18.650;2023-10-08T23:55:11;9.70;;;4.40;;
